createdAt,value
2023-04-24T00:00:22.083Z,0.65
2023-04-24T00:02:23.399Z,0.72
2023-04-24T00:04:26.234Z,1.07
2023-04-24T00:06:29.165Z,1.37
2023-04-24T00:08:30.141Z,1.75
2023-04-24T00:10:30.968Z,0.65
2023-04-24T00:12:31.929Z,0.42
2023-04-24T00:14:32.801Z,0.37
2023-04-24T00:16:33.643Z,0.62
2023-04-24T00:18:34.560Z,0.50
2023-04-24T00:20:38.350Z,0.72
2023-04-24T00:22:39.213Z,0.17
2023-04-24T00:24:40.407Z,0.80
2023-04-24T00:26:41.189Z,0.45
2023-04-24T00:28:42.063Z,0.40
2023-04-24T00:30:43.006Z,0.75
2023-04-24T00:32:43.916Z,0.20
2023-04-24T00:34:44.937Z,0.68
2023-04-24T00:36:46.221Z,0.60
2023-04-24T00:38:47.244Z,0.62
2023-04-24T00:40:48.640Z,0.72
2023-04-24T00:42:49.915Z,0.20
2023-04-24T00:44:51.202Z,0.82
2023-04-24T00:46:54.583Z,1.30
2023-04-24T00:48:56.553Z,0.82
2023-04-24T00:50:59.070Z,0.28
2023-04-24T00:53:00.583Z,1.85
2023-04-24T00:55:01.522Z,1.75
2023-04-24T00:57:05.554Z,1.30
2023-04-24T00:59:06.928Z,1.75
2023-04-24T01:01:08.492Z,0.75
2023-04-24T01:03:11.328Z,0.40
2023-04-24T01:05:13.525Z,0.80
2023-04-24T01:07:14.430Z,1.37
2023-04-24T01:09:15.518Z,0.70
2023-04-24T01:11:16.688Z,0.28
2023-04-24T01:13:19.876Z,0.50
2023-04-24T01:15:20.795Z,1.75
2023-04-24T01:17:21.589Z,0.30
2023-04-24T01:19:22.453Z,0.20
2023-04-24T01:21:24.174Z,0.45
2023-04-24T01:23:25.855Z,0.62
2023-04-24T01:25:27.725Z,0.25
2023-04-24T01:27:30.729Z,0.85
2023-04-24T01:29:31.946Z,0.35
2023-04-24T01:31:33.655Z,0.20
2023-04-24T01:33:35.742Z,0.72
2023-04-24T01:35:37.695Z,0.20
2023-04-24T01:37:38.571Z,0.40
2023-04-24T01:39:39.580Z,0.40
2023-04-24T01:41:40.424Z,0.30
2023-04-24T01:43:41.209Z,0.30
2023-04-24T01:45:42.064Z,0.20
2023-04-24T01:47:43.195Z,0.20
2023-04-24T01:49:46.129Z,0.65
2023-04-24T01:51:47.839Z,0.30
2023-04-24T01:53:48.733Z,0.85
2023-04-24T01:55:49.614Z,0.20
2023-04-24T01:57:52.382Z,0.80
2023-04-24T01:59:53.789Z,1.05
2023-04-24T02:01:54.907Z,0.65
2023-04-24T02:03:55.863Z,0.33
2023-04-24T02:05:56.756Z,1.47
2023-04-24T02:07:58.927Z,1.82
2023-04-24T02:09:59.820Z,0.30
2023-04-24T02:12:01.008Z,0.30
2023-04-24T02:14:01.790Z,0.50
2023-04-24T02:16:02.822Z,1.40
2023-04-24T02:18:07.105Z,0.82
2023-04-24T02:20:08.125Z,1.62
2023-04-24T02:22:08.943Z,0.40
2023-04-24T02:24:09.906Z,1.17
2023-04-24T02:26:11.263Z,0.35
2023-04-24T02:28:12.146Z,0.60
2023-04-24T02:30:13.330Z,1.10
2023-04-24T02:32:15.790Z,0.55
2023-04-24T02:34:17.902Z,0.65
2023-04-24T02:36:18.818Z,0.93
2023-04-24T02:38:19.725Z,0.47
2023-04-24T02:40:20.518Z,0.30
2023-04-24T02:42:21.595Z,0.93
2023-04-24T02:44:22.994Z,1.20
2023-04-24T02:46:24.094Z,0.65
2023-04-24T02:48:25.088Z,0.30
2023-04-24T02:50:25.970Z,0.33
2023-04-24T02:52:26.767Z,0.35
2023-04-24T02:54:27.534Z,0.65
2023-04-24T02:56:28.426Z,0.20
2023-04-24T02:58:30.721Z,0.20
2023-04-24T03:00:31.703Z,0.40
2023-04-24T03:02:32.861Z,0.30
2023-04-24T03:04:33.927Z,0.85
2023-04-24T03:06:35.731Z,0.80
2023-04-24T03:08:36.750Z,0.20
2023-04-24T03:10:37.847Z,1.27
2023-04-24T03:12:38.621Z,1.55
2023-04-24T03:14:39.603Z,0.20
2023-04-24T03:16:41.762Z,0.45
2023-04-24T03:18:42.565Z,0.28
2023-04-24T03:20:45.549Z,0.62
2023-04-24T03:22:46.470Z,0.80
2023-04-24T03:24:47.418Z,0.55
2023-04-24T03:26:50.202Z,0.57
2023-04-24T03:28:58.909Z,0.20
2023-04-24T03:31:00.262Z,0.15
2023-04-24T03:33:03.203Z,0.20
2023-04-24T03:35:07.863Z,1.00
2023-04-24T03:37:08.956Z,0.10
2023-04-24T03:39:10.545Z,0.28
2023-04-24T03:41:13.991Z,0.10
2023-04-24T03:43:22.543Z,0.20
2023-04-24T03:45:24.626Z,0.13
2023-04-24T03:47:25.928Z,0.60
2023-04-24T03:49:27.388Z,0.20
2023-04-24T03:51:30.274Z,0.45
2023-04-24T03:53:33.059Z,0.10
2023-04-24T03:55:34.529Z,0.20
2023-04-24T03:57:35.538Z,0.82
2023-04-24T03:59:38.288Z,0.10
2023-04-24T04:01:42.893Z,0.50
2023-04-24T04:03:45.944Z,0.17
2023-04-24T04:05:48.802Z,0.70
2023-04-24T04:07:49.998Z,0.20
2023-04-24T04:09:51.182Z,0.17
2023-04-24T04:11:51.975Z,0.23
2023-04-24T04:13:52.761Z,0.20
2023-04-24T04:15:55.728Z,0.20
2023-04-24T04:17:56.635Z,0.20
2023-04-24T04:19:58.035Z,0.33
2023-04-24T04:21:59.420Z,0.30
2023-04-24T04:24:02.275Z,0.30
2023-04-24T04:26:05.613Z,0.30
2023-04-24T04:28:08.402Z,0.62
2023-04-24T04:30:10.022Z,0.42
2023-04-24T04:32:12.853Z,0.20
2023-04-24T04:34:14.449Z,0.70
2023-04-24T04:36:17.636Z,0.72
2023-04-24T04:38:21.138Z,0.60
2023-04-24T04:40:23.914Z,1.35
2023-04-24T04:42:27.395Z,0.23
2023-04-24T04:44:29.804Z,0.20
2023-04-24T04:46:33.458Z,0.20
2023-04-24T04:48:36.252Z,0.40
2023-04-24T04:50:38.939Z,0.53
2023-04-24T04:52:41.521Z,0.30
2023-04-24T04:54:44.200Z,0.30
2023-04-24T04:56:46.024Z,0.37
2023-04-24T04:58:47.014Z,0.40
2023-04-24T05:00:49.806Z,0.37
2023-04-24T05:02:56.446Z,0.40
2023-04-24T05:04:58.242Z,0.30
2023-04-24T05:06:59.820Z,0.53
2023-04-24T05:09:01.377Z,0.62
2023-04-24T05:11:04.214Z,1.07
2023-04-24T05:13:06.014Z,0.62
2023-04-24T05:15:08.086Z,0.70
2023-04-24T05:17:09.318Z,1.07
2023-04-24T05:19:11.965Z,0.57
2023-04-24T05:21:14.761Z,0.62
2023-04-24T05:23:16.584Z,1.02
2023-04-24T05:25:18.862Z,0.40
2023-04-24T05:27:21.649Z,0.62
2023-04-24T05:29:23.431Z,0.60
2023-04-24T05:31:24.445Z,0.60
2023-04-24T05:33:25.717Z,0.65
2023-04-24T05:35:26.745Z,0.60
2023-04-24T05:37:27.561Z,0.50
2023-04-24T05:39:28.756Z,0.70
2023-04-24T05:41:30.129Z,0.47
2023-04-24T05:43:31.036Z,0.93
2023-04-24T05:45:31.989Z,0.70
2023-04-24T05:47:32.930Z,0.40
2023-04-24T05:49:34.470Z,0.33
2023-04-24T05:51:35.656Z,0.30
2023-04-24T05:53:36.850Z,0.30
2023-04-24T05:55:38.012Z,0.75
2023-04-24T05:57:38.821Z,0.50
2023-04-24T05:59:40.817Z,0.70
2023-04-24T06:01:42.851Z,0.47
2023-04-24T06:03:45.857Z,0.50
2023-04-24T06:05:46.894Z,0.85
2023-04-24T06:07:48.414Z,0.42
2023-04-24T06:09:49.684Z,0.60
2023-04-24T06:11:52.865Z,0.42
2023-04-24T06:13:54.907Z,0.50
2023-04-24T06:15:57.622Z,0.80
2023-04-24T06:18:06.520Z,0.78
2023-04-24T06:20:08.322Z,0.82
2023-04-24T06:22:10.861Z,0.70
2023-04-24T06:24:13.767Z,0.78
2023-04-24T06:26:15.058Z,0.60
2023-04-24T06:28:15.953Z,0.40
2023-04-24T06:30:16.818Z,0.80
2023-04-24T06:32:17.730Z,0.90
2023-04-24T06:34:18.681Z,0.40
2023-04-24T06:36:20.409Z,0.40
2023-04-24T06:38:21.317Z,0.90
2023-04-24T06:40:22.409Z,0.50
2023-04-24T06:42:24.855Z,0.65
2023-04-24T06:44:25.660Z,0.60
2023-04-24T06:46:27.999Z,0.50
2023-04-24T06:48:29.122Z,0.60
2023-04-24T06:50:29.920Z,1.12
2023-04-24T06:52:33.736Z,0.60
2023-04-24T06:54:34.719Z,0.60
2023-04-24T06:56:35.708Z,0.40
2023-04-24T06:58:36.586Z,0.40
2023-04-24T07:00:37.407Z,0.78
2023-04-24T07:02:38.589Z,0.80
2023-04-24T07:04:40.106Z,0.45
2023-04-24T07:06:41.069Z,0.40
2023-04-24T07:08:42.373Z,0.47
2023-04-24T07:10:44.027Z,0.40
2023-04-24T07:12:44.952Z,0.70
2023-04-24T07:14:46.817Z,0.40
2023-04-24T07:16:48.048Z,0.75
2023-04-24T07:18:48.925Z,1.05
2023-04-24T07:20:52.710Z,0.45
2023-04-24T07:22:54.276Z,0.60
2023-04-24T07:24:55.174Z,0.30
2023-04-24T07:26:57.250Z,0.30
2023-04-24T07:28:58.156Z,0.50
2023-04-24T07:31:00.149Z,0.50
2023-04-24T07:33:01.063Z,0.40
2023-04-24T07:35:02.114Z,0.42
2023-04-24T07:37:03.589Z,0.33
2023-04-24T07:39:06.417Z,0.20
2023-04-24T07:41:07.305Z,0.80
2023-04-24T07:43:08.193Z,0.62
2023-04-24T07:45:09.222Z,0.50
2023-04-24T07:47:09.990Z,0.70
2023-04-24T07:49:13.640Z,0.53
2023-04-24T07:51:13.773Z,0.47
2023-04-24T07:53:14.960Z,0.90
2023-04-24T07:55:15.953Z,0.93
2023-04-24T07:57:20.140Z,0.72
2023-04-24T07:59:21.068Z,0.50
2023-04-24T08:01:21.988Z,0.50
2023-04-24T08:03:22.958Z,0.95
2023-04-24T08:05:26.050Z,0.30
2023-04-24T08:07:27.289Z,0.55
2023-04-24T08:09:28.174Z,0.42
2023-04-24T08:11:29.119Z,0.60
2023-04-24T08:13:30.107Z,0.53
2023-04-24T08:15:30.989Z,0.30
2023-04-24T08:17:32.986Z,0.85
2023-04-24T08:19:33.778Z,0.50
2023-04-24T08:21:34.658Z,0.62
2023-04-24T08:23:35.462Z,0.98
2023-04-24T08:25:36.424Z,0.80
2023-04-24T08:27:37.328Z,0.72
2023-04-24T08:29:38.122Z,1.67
2023-04-24T08:31:39.046Z,1.35
2023-04-24T08:33:41.298Z,0.70
2023-04-24T08:35:42.213Z,0.80
2023-04-24T08:37:43.284Z,0.42
2023-04-24T08:39:44.496Z,0.57
2023-04-24T08:41:46.051Z,0.78
2023-04-24T08:43:47.114Z,0.72
2023-04-24T08:45:48.159Z,0.62
2023-04-24T08:47:49.827Z,0.40
2023-04-24T08:49:51.620Z,1.10
2023-04-24T08:51:52.951Z,0.75
2023-04-24T08:53:54.208Z,1.47
2023-04-24T08:55:56.300Z,1.77
2023-04-24T08:57:57.899Z,1.45
2023-04-24T09:00:03.447Z,0.30
2023-04-24T09:02:05.231Z,1.27
2023-04-24T09:04:06.956Z,0.40
2023-04-24T09:06:08.620Z,1.85
2023-04-24T09:08:11.471Z,0.82
2023-04-24T09:10:13.067Z,0.70
2023-04-24T09:12:14.428Z,1.12
2023-04-24T09:14:15.618Z,1.02
2023-04-24T09:16:16.451Z,0.60
2023-04-24T09:18:17.464Z,1.10
2023-04-24T09:20:18.302Z,0.78
2023-04-24T09:22:19.143Z,1.10
2023-04-24T09:24:22.931Z,0.98
2023-04-24T09:26:23.921Z,0.75
2023-04-24T09:28:32.614Z,0.88
2023-04-24T09:30:33.484Z,1.70
2023-04-24T09:32:34.508Z,0.70
2023-04-24T09:34:35.360Z,0.45
2023-04-24T09:36:38.096Z,1.02
2023-04-24T09:38:39.075Z,1.22
2023-04-24T09:40:41.610Z,1.92
2023-04-24T09:42:52.954Z,0.90
2023-04-24T09:45:01.511Z,2.20
2023-04-24T09:46:57.246Z,1.92
2023-04-24T09:48:58.021Z,1.62
2023-04-24T09:50:59.336Z,0.72
2023-04-24T09:53:04.544Z,1.17
2023-04-24T09:55:13.859Z,1.70
2023-04-24T09:57:15.037Z,1.25
2023-04-24T09:59:16.816Z,1.60
2023-04-24T10:01:20.178Z,1.55
2023-04-24T10:03:21.552Z,1.98
2023-04-24T10:05:23.798Z,1.72
2023-04-24T10:07:26.383Z,1.47
2023-04-24T10:09:27.406Z,1.05
2023-04-24T10:11:28.508Z,1.35
2023-04-24T10:13:29.498Z,1.62
2023-04-24T10:15:30.918Z,2.35
2023-04-24T10:17:32.610Z,1.47
2023-04-24T10:19:34.106Z,1.95
2023-04-24T10:21:37.631Z,1.47
2023-04-24T10:23:38.897Z,1.62
2023-04-24T10:25:39.984Z,1.35
2023-04-24T10:27:41.289Z,1.27
2023-04-24T10:29:43.973Z,0.65
2023-04-24T10:31:48.257Z,1.57
2023-04-24T10:33:50.264Z,1.10
2023-04-24T10:35:51.344Z,0.50
2023-04-24T10:37:57.131Z,2.25
2023-04-24T10:39:58.096Z,1.85
2023-04-24T10:41:58.984Z,2.10
2023-04-24T10:44:12.579Z,1.52
2023-04-24T10:46:15.320Z,1.85
2023-04-24T10:48:16.506Z,1.80
2023-04-24T10:50:17.444Z,1.42
2023-04-24T10:52:18.322Z,1.25
2023-04-24T10:54:23.213Z,1.62
2023-04-24T10:56:24.100Z,1.50
2023-04-24T10:58:26.899Z,1.45
2023-04-24T11:00:27.881Z,2.05
2023-04-24T11:02:30.710Z,1.37
2023-04-24T11:04:32.296Z,1.20
2023-04-24T11:06:35.243Z,1.65
2023-04-24T11:08:40.073Z,1.80
2023-04-24T11:10:43.000Z,0.98
2023-04-24T11:12:43.883Z,1.35
2023-04-24T11:14:59.931Z,1.72
2023-04-24T11:17:01.226Z,2.75
2023-04-24T11:19:06.984Z,2.40
2023-04-24T11:21:12.842Z,2.10
2023-04-24T11:23:14.516Z,1.92
2023-04-24T11:25:16.511Z,3.25
2023-04-24T11:27:19.939Z,2.62
2023-04-24T11:29:22.345Z,1.65
2023-04-24T11:31:40.167Z,1.35
2023-04-24T11:33:41.382Z,1.60
2023-04-24T11:35:42.875Z,2.50
2023-04-24T11:38:08.035Z,3.12
2023-04-24T11:39:57.085Z,2.58
2023-04-24T11:42:00.893Z,2.83
2023-04-24T11:44:03.390Z,3.02
2023-04-24T11:46:05.624Z,3.10
2023-04-24T11:48:07.201Z,2.08
2023-04-24T11:50:09.287Z,3.77
2023-04-24T11:52:11.060Z,3.05
2023-04-24T11:54:11.962Z,1.90
2023-04-24T11:56:14.744Z,2.50
2023-04-24T11:58:17.562Z,1.82
2023-04-24T12:00:19.926Z,2.27
2023-04-24T12:02:22.284Z,3.67
2023-04-24T12:04:23.603Z,3.00
2023-04-24T12:06:24.950Z,3.77
2023-04-24T12:08:29.275Z,3.35
2023-04-24T12:10:31.106Z,2.52
2023-04-24T12:12:32.022Z,2.87
2023-04-24T12:14:33.049Z,2.80
2023-04-24T12:16:33.956Z,2.12
2023-04-24T12:18:34.881Z,2.72
2023-04-24T12:20:35.859Z,3.08
2023-04-24T12:22:46.911Z,3.85
2023-04-24T12:24:57.916Z,2.08
2023-04-24T12:26:58.806Z,2.87
2023-04-24T12:29:01.655Z,1.02
2023-04-24T12:31:02.629Z,1.95
2023-04-24T12:33:04.029Z,3.52
2023-04-24T12:35:06.477Z,1.80
2023-04-24T12:37:11.349Z,2.50
2023-04-24T12:39:17.850Z,2.37
2023-04-24T12:41:19.885Z,2.47
2023-04-24T12:43:20.859Z,2.58
2023-04-24T12:45:23.665Z,4.37
2023-04-24T12:47:24.775Z,1.40
2023-04-24T12:49:25.554Z,1.55
2023-04-24T12:51:26.335Z,2.08
2023-04-24T12:53:28.845Z,1.30
2023-04-24T12:55:30.018Z,2.30
2023-04-24T12:57:31.158Z,1.77
2023-04-24T12:59:32.006Z,1.12
2023-04-24T13:01:32.881Z,1.35
2023-04-24T13:03:33.766Z,1.62
2023-04-24T13:05:35.293Z,1.80
2023-04-24T13:07:36.158Z,2.00
2023-04-24T13:09:37.460Z,2.60
2023-04-24T13:11:38.267Z,1.90
2023-04-24T13:13:39.291Z,1.85
2023-04-24T13:15:40.368Z,1.42
2023-04-24T13:17:41.381Z,1.92
2023-04-24T13:19:43.040Z,1.72
2023-04-24T13:21:43.947Z,2.62
2023-04-24T13:23:45.054Z,3.47
2023-04-24T13:25:47.498Z,2.47
2023-04-24T13:27:48.411Z,3.77
2023-04-24T13:29:49.281Z,2.72
2023-04-24T13:31:56.748Z,0.85
2023-04-24T13:33:57.587Z,1.82
2023-04-24T13:35:58.403Z,2.00
2023-04-24T13:38:00.495Z,1.20
2023-04-24T13:40:01.375Z,0.60
2023-04-24T13:42:04.823Z,2.33
2023-04-24T13:44:06.468Z,2.75
2023-04-24T13:46:07.336Z,3.50
2023-04-24T13:48:09.560Z,3.35
2023-04-24T13:50:10.657Z,1.10
2023-04-24T13:52:11.441Z,1.62
2023-04-24T13:54:12.329Z,1.92
2023-04-24T13:56:14.291Z,2.17
2023-04-24T13:58:15.405Z,2.05
2023-04-24T14:00:16.905Z,1.80
2023-04-24T14:02:17.826Z,1.67
2023-04-24T14:04:18.935Z,2.58
2023-04-24T14:06:20.349Z,1.37
2023-04-24T14:08:21.147Z,0.78
2023-04-24T14:10:22.049Z,1.35
2023-04-24T14:12:23.109Z,1.12
2023-04-24T14:14:24.024Z,2.00
2023-04-24T14:16:25.477Z,2.70
2023-04-24T14:18:27.091Z,1.67
2023-04-24T14:20:27.881Z,1.25
2023-04-24T14:22:28.772Z,1.07
2023-04-24T14:24:29.635Z,2.25
2023-04-24T14:26:30.532Z,1.90
2023-04-24T14:28:31.339Z,2.62
2023-04-24T14:30:32.211Z,0.30
2023-04-24T14:32:33.359Z,1.77
2023-04-24T14:34:34.176Z,2.70
2023-04-24T14:36:35.560Z,2.22
2023-04-24T14:38:36.454Z,2.60
2023-04-24T14:41:04.719Z,0.72
2023-04-24T14:42:40.928Z,1.62
2023-04-24T14:44:41.982Z,0.90
2023-04-24T14:46:43.303Z,0.75
2023-04-24T14:48:44.235Z,1.22
2023-04-24T14:50:45.507Z,1.92
2023-04-24T14:52:47.870Z,1.20
2023-04-24T14:54:48.716Z,1.55
2023-04-24T14:56:49.911Z,1.32
2023-04-24T14:58:50.680Z,1.70
2023-04-24T15:00:52.255Z,1.95
2023-04-24T15:02:55.256Z,1.07
2023-04-24T15:04:56.731Z,0.82
2023-04-24T15:06:57.679Z,1.20
2023-04-24T15:08:58.691Z,1.55
2023-04-24T15:10:59.667Z,1.40
2023-04-24T15:13:00.523Z,1.60
2023-04-24T15:15:01.470Z,0.88
2023-04-24T15:17:02.808Z,1.17
2023-04-24T15:19:03.830Z,1.12
2023-04-24T15:21:04.833Z,1.90
2023-04-24T15:23:06.112Z,1.27
2023-04-24T15:25:07.532Z,1.60
2023-04-24T15:27:11.509Z,1.45
2023-04-24T15:29:12.351Z,1.45
2023-04-24T15:31:13.338Z,1.80
2023-04-24T15:33:14.238Z,1.55
2023-04-24T15:35:16.425Z,0.88
2023-04-24T15:37:17.702Z,1.27
2023-04-24T15:39:22.087Z,1.77
2023-04-24T15:41:22.922Z,1.17
2023-04-24T15:43:23.813Z,2.15
2023-04-24T15:45:25.443Z,1.05
2023-04-24T15:47:26.595Z,1.32
2023-04-24T15:49:27.555Z,1.65
2023-04-24T15:51:28.411Z,1.22
2023-04-24T15:53:29.306Z,2.17
2023-04-24T15:55:30.170Z,1.40
2023-04-24T15:57:31.355Z,0.98
2023-04-24T15:59:32.321Z,0.88
2023-04-24T16:01:33.289Z,0.75
2023-04-24T16:03:34.320Z,0.37
2023-04-24T16:05:35.635Z,1.05
2023-04-24T16:07:37.627Z,1.00
2023-04-24T16:09:38.492Z,0.62
2023-04-24T16:11:39.286Z,1.67
2023-04-24T16:13:40.090Z,1.82
2023-04-24T16:15:41.759Z,0.88
2023-04-24T16:17:42.622Z,1.20
2023-04-24T16:19:43.498Z,0.93
2023-04-24T16:21:44.379Z,0.85
2023-04-24T16:23:45.262Z,0.50
2023-04-24T16:25:46.259Z,1.60
2023-04-24T16:27:48.166Z,1.00
2023-04-24T16:29:49.734Z,0.90
2023-04-24T16:31:50.915Z,0.60
2023-04-24T16:33:51.897Z,0.80
2023-04-24T16:35:52.804Z,0.90
2023-04-24T16:37:53.789Z,1.42
2023-04-24T16:39:55.451Z,1.42
2023-04-24T16:41:58.982Z,0.98
2023-04-24T16:43:59.775Z,2.95
2023-04-24T16:46:00.709Z,3.67
2023-04-24T16:48:01.624Z,1.65
2023-04-24T16:50:02.600Z,1.62
2023-04-24T16:52:03.575Z,2.55
2023-04-24T16:54:04.628Z,3.30
2023-04-24T16:56:05.954Z,2.55
2023-04-24T16:58:06.830Z,1.00
2023-04-24T17:00:08.349Z,1.72
2023-04-24T17:02:09.250Z,2.90
2023-04-24T17:04:10.203Z,2.60
2023-04-24T17:06:11.930Z,2.27
2023-04-24T17:08:12.919Z,3.30
2023-04-24T17:10:13.804Z,1.87
2023-04-24T17:12:14.909Z,1.45
2023-04-24T17:14:16.254Z,1.10
2023-04-24T17:16:17.270Z,2.02
2023-04-24T17:18:18.177Z,1.47
2023-04-24T17:20:22.852Z,2.72
2023-04-24T17:22:22.166Z,2.22
2023-04-24T17:24:23.138Z,1.37
2023-04-24T17:26:24.222Z,1.17
2023-04-24T17:28:26.925Z,2.22
2023-04-24T17:30:27.816Z,1.62
2023-04-24T17:32:28.917Z,1.82
2023-04-24T17:34:32.043Z,1.42
2023-04-24T17:36:32.823Z,1.40
2023-04-24T17:38:33.677Z,0.78
2023-04-24T17:40:34.507Z,1.30
2023-04-24T17:42:38.244Z,1.10
2023-04-24T17:44:39.184Z,0.90
2023-04-24T17:46:40.239Z,1.00
2023-04-24T17:48:41.108Z,1.30
2023-04-24T17:50:41.998Z,0.90
2023-04-24T17:52:42.769Z,0.53
2023-04-24T17:54:43.641Z,1.35
2023-04-24T17:56:44.609Z,0.45
2023-04-24T17:58:45.757Z,0.90
2023-04-24T18:00:46.660Z,1.45
2023-04-24T18:02:49.078Z,1.07
2023-04-24T18:04:50.791Z,0.88
2023-04-24T18:06:52.733Z,0.95
2023-04-24T18:08:53.587Z,1.62
2023-04-24T18:10:54.487Z,1.17
2023-04-24T18:12:55.845Z,1.00
2023-04-24T18:15:06.672Z,1.20
2023-04-24T18:16:59.432Z,0.40
2023-04-24T18:19:00.396Z,0.80
2023-04-24T18:21:01.668Z,0.88
2023-04-24T18:23:03.515Z,1.02
2023-04-24T18:25:04.825Z,1.77
2023-04-24T18:27:05.740Z,0.42
2023-04-24T18:29:07.181Z,0.70
2023-04-24T18:31:08.559Z,0.50
2023-04-24T18:33:09.849Z,1.20
2023-04-24T18:35:10.706Z,1.07
2023-04-24T18:37:14.327Z,2.75
2023-04-24T18:39:15.201Z,1.17
2023-04-24T18:41:16.180Z,2.72
2023-04-24T18:43:17.075Z,1.80
2023-04-24T18:45:17.859Z,0.72
2023-04-24T18:47:18.784Z,2.47
2023-04-24T18:49:19.672Z,1.10
2023-04-24T18:51:20.544Z,1.75
2023-04-24T18:53:21.301Z,1.15
2023-04-24T18:55:22.076Z,2.42
2023-04-24T18:57:22.958Z,1.32
2023-04-24T18:59:23.829Z,1.47
2023-04-24T19:01:24.773Z,1.05
2023-04-24T19:03:25.759Z,3.05
2023-04-24T19:05:26.807Z,1.67
2023-04-24T19:07:28.680Z,0.55
2023-04-24T19:09:30.157Z,2.12
2023-04-24T19:11:31.233Z,1.12
2023-04-24T19:13:34.520Z,0.80
2023-04-24T19:15:35.480Z,1.22
2023-04-24T19:17:36.608Z,2.72
2023-04-24T19:19:37.473Z,1.25
2023-04-24T19:21:38.556Z,0.68
2023-04-24T19:23:40.374Z,3.00
2023-04-24T19:25:41.211Z,1.02
2023-04-24T19:27:42.112Z,1.40
2023-04-24T19:29:42.909Z,1.35
2023-04-24T19:31:43.917Z,1.82
2023-04-24T19:33:46.660Z,1.27
2023-04-24T19:35:47.535Z,2.95
2023-04-24T19:37:48.324Z,1.70
2023-04-24T19:39:50.415Z,0.47
2023-04-24T19:41:51.285Z,1.42
2023-04-24T19:43:52.057Z,0.30
2023-04-24T19:45:53.010Z,0.50
2023-04-24T19:47:55.868Z,0.85
2023-04-24T19:49:56.788Z,0.78
2023-04-24T19:51:57.783Z,1.15
2023-04-24T19:53:59.166Z,1.25
2023-04-24T19:56:00.046Z,1.17
2023-04-24T19:58:01.333Z,0.35
2023-04-24T20:00:03.838Z,0.50
2023-04-24T20:02:05.714Z,1.27
2023-04-24T20:04:07.244Z,0.82
2023-04-24T20:06:08.474Z,0.80
2023-04-24T20:08:10.350Z,0.47
2023-04-24T20:10:11.217Z,0.40
2023-04-24T20:12:12.205Z,0.42
2023-04-24T20:14:13.392Z,0.68
2023-04-24T20:16:14.335Z,0.90
2023-04-24T20:18:15.713Z,0.30
2023-04-24T20:20:16.595Z,1.42
2023-04-24T20:22:17.476Z,0.30
2023-04-24T20:24:18.473Z,0.13
2023-04-24T20:26:19.653Z,1.22
2023-04-24T20:28:20.526Z,0.55
2023-04-24T20:30:21.438Z,1.00
2023-04-24T20:32:22.327Z,0.50
2023-04-24T20:34:23.188Z,0.85
2023-04-24T20:36:24.119Z,0.90
2023-04-24T20:38:24.982Z,1.25
2023-04-24T20:40:27.354Z,0.82
2023-04-24T20:42:28.349Z,0.55
2023-04-24T20:44:29.214Z,0.78
2023-04-24T20:46:30.112Z,0.80
2023-04-24T20:48:31.127Z,0.45
2023-04-24T20:50:33.249Z,0.98
2023-04-24T20:52:34.030Z,1.05
2023-04-24T20:54:35.035Z,0.80
2023-04-24T20:56:35.922Z,0.68
2023-04-24T20:58:37.069Z,0.78
2023-04-24T21:00:38.016Z,1.10
2023-04-24T21:02:38.928Z,0.70
2023-04-24T21:04:39.851Z,0.45
2023-04-24T21:06:40.886Z,0.62
2023-04-24T21:08:41.726Z,0.90
2023-04-24T21:10:42.710Z,0.68
2023-04-24T21:12:43.596Z,0.23
2023-04-24T21:14:44.357Z,1.00
2023-04-24T21:16:45.177Z,0.85
2023-04-24T21:18:46.299Z,0.40
2023-04-24T21:20:47.584Z,0.23
2023-04-24T21:22:48.498Z,0.75
2023-04-24T21:24:49.670Z,1.07
2023-04-24T21:26:50.565Z,0.75
2023-04-24T21:29:09.605Z,0.90
2023-04-24T21:31:10.979Z,0.88
2023-04-24T21:33:12.071Z,1.32
2023-04-24T21:35:12.982Z,0.85
2023-04-24T21:37:14.969Z,0.95
2023-04-24T21:39:15.838Z,1.07
2023-04-24T21:41:16.712Z,0.65
2023-04-24T21:43:18.018Z,0.28
2023-04-24T21:45:19.416Z,0.72
2023-04-24T21:47:20.289Z,1.05
2023-04-24T21:49:21.244Z,0.90
2023-04-24T21:51:22.160Z,0.88
2023-04-24T21:53:23.012Z,1.02
2023-04-24T21:55:23.924Z,0.10
2023-04-24T21:57:24.901Z,1.10
2023-04-24T21:59:25.762Z,1.45
2023-04-24T22:01:26.621Z,1.15
2023-04-24T22:03:28.843Z,0.70
2023-04-24T22:05:30.212Z,0.25
2023-04-24T22:07:33.764Z,0.10
2023-04-24T22:09:35.556Z,0.60
2023-04-24T22:11:37.036Z,0.47
2023-04-24T22:13:37.802Z,1.15
2023-04-24T22:15:38.604Z,0.42
2023-04-24T22:17:39.501Z,0.93
2023-04-24T22:19:42.396Z,0.68
2023-04-24T22:21:45.697Z,1.37
2023-04-24T22:23:46.972Z,0.68
2023-04-24T22:25:48.150Z,0.95
2023-04-24T22:27:49.865Z,0.62
2023-04-24T22:29:50.728Z,0.35
2023-04-24T22:31:53.532Z,1.45
2023-04-24T22:33:54.987Z,0.30
2023-04-24T22:35:55.776Z,1.27
2023-04-24T22:37:57.679Z,0.50
2023-04-24T22:40:00.527Z,1.05
2023-04-24T22:42:02.042Z,1.35
2023-04-24T22:44:03.412Z,1.00
2023-04-24T22:46:04.585Z,1.25
2023-04-24T22:48:05.804Z,0.95
2023-04-24T22:50:07.736Z,0.75
2023-04-24T22:52:08.619Z,1.27
2023-04-24T22:54:09.391Z,1.45
2023-04-24T22:56:11.199Z,1.05
2023-04-24T22:58:12.061Z,1.05
2023-04-24T23:00:13.040Z,2.72
2023-04-24T23:02:15.095Z,0.95
2023-04-24T23:04:16.196Z,0.80
2023-04-24T23:06:17.060Z,1.22
2023-04-24T23:08:17.849Z,1.25
2023-04-24T23:10:18.863Z,3.72
2023-04-24T23:12:19.634Z,1.02
2023-04-24T23:14:21.133Z,0.40
2023-04-24T23:16:23.947Z,0.80
2023-04-24T23:18:24.781Z,0.98
2023-04-24T23:20:26.172Z,0.65
2023-04-24T23:22:27.338Z,1.05
2023-04-24T23:24:28.105Z,1.55
2023-04-24T23:26:28.990Z,1.05
2023-04-24T23:28:30.074Z,0.98
2023-04-24T23:30:30.976Z,0.33
2023-04-24T23:32:31.995Z,0.62
2023-04-24T23:34:33.233Z,1.98
2023-04-24T23:36:34.011Z,0.53
2023-04-24T23:38:46.652Z,1.17
2023-04-24T23:40:37.582Z,1.30
2023-04-24T23:42:38.575Z,1.15
2023-04-24T23:44:39.508Z,1.47
2023-04-24T23:46:40.400Z,1.55
2023-04-24T23:48:41.167Z,3.40
2023-04-24T23:50:42.705Z,0.23
2023-04-24T23:52:44.328Z,1.20
2023-04-24T23:54:45.496Z,0.65
2023-04-24T23:56:47.480Z,1.10
2023-04-24T23:58:50.269Z,0.70
